Beeville, TX

11:36 AM CDT on April 19, 2018 (GMT -0500)
Beeville

Weather History for KBEA - January, 2014

Change the Weather History Date:

Sunday, January 5, 2014

  Actual Average (KCRP) Record (KCRP)
Temperature  
Mean Temperature 51 °F -  
Max Temperature 62 °F 66 °F 87 °F (1989)
Min Temperature 40 °F 45 °F 28 °F (1969)
Degree Days  
Heating Degree Days 14    
Growing Degree Days 1 (Base 50)    
Moisture  
Dew Point 40 °F    
Average Humidity 65    
Maximum Humidity 100    
Minimum Humidity 34    
Precipitation  
Precipitation 0.00 in - - ()
Sea Level Pressure  
Sea Level Pressure 30.05 in    
Wind  
Wind Speed 12 mph (North)    
Max Wind Speed 26 mph    
Max Gust Speed 34 mph    
Visibility 9 miles    
Events Fog    
Averages and records for this station are not official NWS values.
T = Trace of Precipitation, MM = Missing Value Source: NWS Daily Summary

Daily Weather History Graph

Daily Weather History Graph

Search for Another Location

Airport or City:

Astronomy

Jan. 05, 2014 Rise Set
Actual Time 7:24 AM CST 5:49 PM CST
Civil Twilight 6:58 AM CST 6:14 PM CST
Nautical Twilight 6:29 AM CST 6:44 PM CST
Astronomical Twilight 6:00 AM CST 7:12 PM CST
Moon 10:32 AM CST (1/5) 10:49 PM CST (1/5)
Length of Visible Light 11h 16m
Length of Day
10h 24m
Waxing Crescent, 25% of the Moon is Illuminated
Jan 5
Waxing Crescent
Jan 7
First Quarter
Jan 15
Full
Jan 23
Last Quarter
Jan 30
New

Hourly Weather History & Observations

Time (CST) Temp. Windchill Dew Point Humidity Pressure Visibility Wind Dir Wind Speed Gust Speed Precip Events Conditions
12:15 AM 58.1 °F - 58.1 °F 100% 29.85 in 10.0 mi South 10.4 mph - N/A   Clear
12:35 AM 58.1 °F - 58.1 °F 100% 29.84 in 10.0 mi South 8.1 mph - N/A   Clear
12:55 AM 57.9 °F - 57.9 °F 100% 29.84 in 10.0 mi South 6.9 mph - N/A   Clear
1:15 AM 57.4 °F - 57.4 °F 100% 29.83 in 10.0 mi South 8.1 mph - N/A   Clear
1:35 AM 57.9 °F - 57.9 °F 100% 29.83 in 10.0 mi South 9.2 mph - N/A   Scattered Clouds
1:55 AM 58.1 °F - 58.1 °F 100% 29.83 in 10.0 mi South 9.2 mph - N/A   Scattered Clouds
2:15 AM 58.8 °F - 58.8 °F 100% 29.83 in 10.0 mi South 11.5 mph - N/A   Scattered Clouds
2:35 AM 59.2 °F - 59.2 °F 100% 29.82 in 10.0 mi South 12.7 mph - N/A   Mostly Cloudy
2:55 AM 59.4 °F - 59.4 °F 100% 29.82 in 10.0 mi South 10.4 mph - N/A   Mostly Cloudy
3:15 AM 59.9 °F - 59.9 °F 100% 29.82 in 10.0 mi South 13.8 mph - N/A   Overcast
3:35 AM 59.9 °F - 59.9 °F 100% 29.82 in 10.0 mi South 12.7 mph - N/A   Overcast
3:55 AM 59.5 °F - 59.5 °F 100% 29.82 in 10.0 mi South 12.7 mph 16.1 mph N/A   Mostly Cloudy
4:15 AM 59.2 °F - 59.2 °F 100% 29.82 in 10.0 mi South 10.4 mph - N/A   Scattered Clouds
4:35 AM 58.8 °F - 58.8 °F 100% 29.82 in 10.0 mi South 9.2 mph - N/A   Scattered Clouds
4:55 AM 58.1 °F - 58.1 °F 100% 29.82 in 7.0 mi South 9.2 mph - N/A   Clear
5:15 AM 58.1 °F - 58.1 °F 100% 29.82 in 7.0 mi South 10.4 mph - N/A   Clear
5:35 AM 57.9 °F - 57.9 °F 100% 29.82 in 7.0 mi South 8.1 mph - N/A   Clear
5:55 AM 57.6 °F - 57.6 °F 100% 29.84 in 7.0 mi Calm Calm - N/A   Clear
6:15 AM 57.0 °F - 57.0 °F 100% 29.85 in 3.0 mi Calm Calm - N/A   Scattered Clouds
6:35 AM 55.4 °F - 55.4 °F 100% 29.85 in 0.5 mi WNW 3.5 mph - N/A Fog Fog
6:55 AM 55.4 °F - 55.4 °F 100% 29.85 in 0.2 mi Calm Calm - N/A Fog Fog
7:15 AM 55.2 °F - 55.2 °F 100% 29.87 in 0.2 mi Calm Calm - N/A Fog Fog
7:35 AM 54.3 °F - 54.3 °F 100% 29.87 in 0.2 mi Calm Calm - N/A Fog Fog
7:55 AM 55.2 °F - 55.2 °F 100% 29.88 in 0.2 mi Calm Calm - N/A Fog Fog
8:15 AM 55.8 °F - 55.8 °F 100% 29.94 in 1.2 mi NNW 19.6 mph 25.3 mph N/A   Mostly Cloudy
8:35 AM 57.2 °F - 57.2 °F 100% 29.95 in 10.0 mi NNW 10.4 mph - N/A   Mostly Cloudy
8:55 AM 57.6 °F - 57.6 °F 100% 29.95 in 10.0 mi North 8.1 mph - N/A   Scattered Clouds
9:15 AM 58.3 °F - 58.3 °F 100% 29.97 in 10.0 mi North 9.2 mph - N/A   Scattered Clouds
9:35 AM 61.3 °F - 60.4 °F 97% 29.98 in 10.0 mi NNE 6.9 mph - N/A   Clear
9:55 AM 62.8 °F - 55.4 °F 77% 30.01 in 10.0 mi North 26.5 mph 34.5 mph N/A   Scattered Clouds
10:15 AM 50.2 °F - 40.5 °F 69% 30.04 in 10.0 mi North 21.9 mph 31.1 mph N/A   Overcast
10:35 AM 49.5 °F - 38.3 °F 65% 30.05 in 10.0 mi North 18.4 mph 26.5 mph N/A   Overcast
10:55 AM 50.5 °F - 37.2 °F 60% 30.06 in 10.0 mi North 18.4 mph 27.6 mph N/A   Overcast
11:15 AM 50.4 °F - 34.3 °F 54% 30.08 in 10.0 mi North 24.2 mph 32.2 mph N/A   Overcast
11:35 AM 49.8 °F - 32.7 °F 52% 30.08 in 10.0 mi North 20.7 mph 29.9 mph N/A   Overcast
11:55 AM 50.9 °F - 32.9 °F 50% 30.08 in 10.0 mi North 21.9 mph 29.9 mph N/A   Overcast
12:15 PM 52.7 °F - 33.3 °F 48% 30.08 in 10.0 mi North 19.6 mph 26.5 mph N/A   Overcast
12:35 PM 54.5 °F - 33.4 °F 45% 30.08 in 10.0 mi North 16.1 mph 25.3 mph N/A   Mostly Cloudy
12:55 PM 56.8 °F - 32.9 °F 40% 30.06 in 10.0 mi North 19.6 mph 23.0 mph N/A   Scattered Clouds
1:15 PM 57.9 °F - 32.0 °F 37% 30.06 in 10.0 mi North 18.4 mph 24.2 mph N/A   Clear
1:35 PM 58.5 °F - 31.5 °F 36% 30.07 in 10.0 mi North 21.9 mph 27.6 mph N/A   Clear
1:55 PM 57.2 °F - 30.6 °F 36% 30.07 in 10.0 mi North 20.7 mph 27.6 mph N/A   Clear
2:15 PM 56.8 °F - 30.2 °F 36% 30.08 in 10.0 mi North 19.6 mph 27.6 mph N/A   Clear
2:35 PM 56.5 °F - 30.2 °F 37% 30.08 in 10.0 mi North 19.6 mph 27.6 mph N/A   Clear
2:55 PM 56.3 °F - 29.8 °F 36% 30.08 in 10.0 mi North 20.7 mph 26.5 mph N/A   Clear
3:15 PM 56.5 °F - 29.3 °F 35% 30.09 in 10.0 mi North 23.0 mph 26.5 mph N/A   Clear
3:35 PM 56.8 °F - 29.1 °F 35% 30.10 in 10.0 mi North 18.4 mph 26.5 mph N/A   Clear
3:55 PM 56.8 °F - 29.3 °F 35% 30.11 in 10.0 mi North 15.0 mph 23.0 mph N/A   Clear
4:15 PM 56.1 °F - 28.9 °F 35% 30.11 in 10.0 mi North 18.4 mph 25.3 mph N/A   Clear
4:35 PM 55.4 °F - 28.2 °F 35% 30.13 in 10.0 mi North 16.1 mph 21.9 mph N/A   Clear
4:55 PM 54.5 °F - 27.1 °F 35% 30.14 in 10.0 mi North 13.8 mph 23.0 mph N/A   Clear
5:15 PM 53.6 °F - 26.6 °F 35% 30.15 in 10.0 mi North 18.4 mph 23.0 mph N/A   Clear
5:35 PM 52.9 °F - 26.2 °F 36% 30.16 in 10.0 mi North 15.0 mph 24.2 mph N/A   Clear
5:55 PM 52.0 °F - 25.5 °F 36% 30.17 in 10.0 mi North 12.7 mph 24.2 mph N/A   Clear
6:15 PM 51.4 °F - 23.9 °F 34% 30.18 in 10.0 mi North 15.0 mph 21.9 mph N/A   Clear
6:35 PM 50.7 °F - 24.4 °F 36% 30.20 in 10.0 mi North 10.4 mph - N/A   Clear
6:55 PM 49.3 °F - 24.8 °F 38% 30.21 in 10.0 mi North 6.9 mph - N/A   Clear
7:15 PM 49.1 °F - 24.1 °F 38% 30.23 in 10.0 mi North 12.7 mph 16.1 mph N/A   Clear
7:35 PM 49.1 °F - 22.8 °F 36% 30.24 in 10.0 mi North 18.4 mph 21.9 mph N/A   Clear
7:55 PM 48.4 °F - 22.8 °F 37% 30.26 in 10.0 mi North 13.8 mph 23.0 mph N/A   Clear
8:15 PM 47.8 °F - 23.0 °F 38% 30.27 in 10.0 mi North 12.7 mph 19.6 mph N/A   Clear
8:35 PM 47.3 °F - 23.2 °F 39% 30.29 in 10.0 mi North 10.4 mph - N/A   Clear
8:55 PM 46.4 °F 40.1 °F 23.0 °F 40% 30.30 in 10.0 mi North 15.0 mph 20.7 mph N/A   Clear
9:15 PM 46.0 °F 40.6 °F 22.5 °F 39% 30.31 in 10.0 mi NNE 11.5 mph - N/A   Clear
9:35 PM 45.1 °F 36.6 °F 20.8 °F 38% 30.33 in 10.0 mi North 23.0 mph 28.8 mph N/A   Clear
9:55 PM 44.6 °F 37.2 °F 19.8 °F 37% 30.34 in 10.0 mi North 17.3 mph 27.6 mph N/A   Clear
10:15 PM 43.7 °F 35.4 °F 19.8 °F 38% 30.35 in 10.0 mi NNE 19.6 mph 26.5 mph N/A   Clear
10:35 PM 42.8 °F 34.3 °F 19.4 °F 39% 30.37 in 10.0 mi North 19.6 mph 27.6 mph N/A   Clear
10:55 PM 42.1 °F 34.9 °F 19.2 °F 40% 30.38 in 10.0 mi North 13.8 mph 24.2 mph N/A   Clear
11:15 PM 41.7 °F 34.8 °F 19.4 °F 41% 30.39 in 10.0 mi North 12.7 mph 19.6 mph N/A   Clear
11:35 PM 40.8 °F 34.5 °F 19.9 °F 43% 30.39 in 10.0 mi North 10.4 mph - N/A   Clear
11:55 PM 40.1 °F 33.2 °F 20.1 °F 45% 30.39 in 10.0 mi North 11.5 mph 16.1 mph N/A   Clear